createdAt,value
2023-01-20T00:01:30.046Z,18.97
2023-01-20T00:03:39.027Z,19.80
2023-01-20T00:05:53.146Z,19.10
2023-01-20T00:08:01.826Z,22.67
2023-01-20T00:10:11.749Z,22.37
2023-01-20T00:12:20.728Z,22.50
2023-01-20T00:14:31.152Z,18.97
2023-01-20T00:16:39.950Z,18.30
2023-01-20T00:18:48.825Z,23.87
2023-01-20T00:20:57.905Z,18.50
2023-01-20T00:23:06.879Z,22.23
2023-01-20T00:25:16.533Z,17.83
2023-01-20T00:27:25.746Z,18.90
2023-01-20T00:29:36.191Z,20.23
2023-01-20T00:31:45.219Z,19.63
2023-01-20T00:33:55.268Z,17.83
2023-01-20T00:36:04.652Z,19.27
2023-01-20T00:38:13.303Z,17.87
2023-01-20T00:40:21.990Z,19.33
2023-01-20T00:42:30.779Z,22.60
2023-01-20T00:44:41.958Z,18.73
2023-01-20T00:46:50.813Z,18.07
2023-01-20T00:48:59.891Z,22.77
2023-01-20T00:51:09.398Z,18.67
2023-01-20T00:53:18.224Z,19.33
2023-01-20T00:55:26.918Z,18.87
2023-01-20T00:57:36.078Z,20.30
2023-01-20T00:59:46.941Z,15.83
2023-01-20T01:01:55.795Z,21.33
2023-01-20T01:04:05.185Z,15.90
2023-01-20T01:06:15.067Z,17.77
2023-01-20T01:08:24.084Z,14.60
2023-01-20T01:10:33.302Z,16.57
2023-01-20T01:12:42.301Z,16.37
2023-01-20T01:14:52.669Z,13.73
2023-01-20T01:17:01.292Z,15.93
2023-01-20T01:19:10.175Z,19.03
2023-01-20T01:21:19.709Z,19.67
2023-01-20T01:23:28.883Z,15.13
2023-01-20T01:25:39.506Z,17.77
2023-01-20T01:27:48.546Z,13.80
2023-01-20T01:29:59.373Z,15.87
2023-01-20T01:32:08.998Z,13.07
2023-01-20T01:34:17.823Z,14.27
2023-01-20T01:36:26.897Z,12.10
2023-01-20T01:38:35.908Z,14.97
2023-01-20T01:40:50.283Z,15.87
2023-01-20T01:42:59.285Z,16.03
2023-01-20T01:45:23.625Z,13.17
2023-01-20T01:47:32.753Z,14.47
2023-01-20T01:49:41.528Z,16.47
2023-01-20T01:51:51.554Z,19.87
2023-01-20T01:54:02.163Z,11.90
2023-01-20T01:56:11.215Z,12.83
2023-01-20T01:58:22.957Z,16.47
2023-01-20T02:00:33.101Z,16.70
2023-01-20T02:02:43.633Z,13.60
2023-01-20T02:04:52.679Z,12.20
2023-01-20T02:07:05.120Z,13.50
2023-01-20T02:09:16.235Z,11.97
2023-01-20T02:11:25.236Z,15.10
2023-01-20T02:13:34.424Z,17.03
2023-01-20T02:15:50.680Z,13.33
2023-01-20T02:18:07.705Z,13.87
2023-01-20T02:20:34.821Z,13.13
2023-01-20T02:22:48.743Z,17.93
2023-01-20T02:25:08.882Z,15.60
2023-01-20T02:27:24.052Z,13.20
2023-01-20T02:29:59.521Z,11.27
2023-01-20T02:32:18.050Z,13.87
2023-01-20T02:34:29.865Z,12.93
2023-01-20T02:36:42.991Z,13.93
2023-01-20T02:38:58.524Z,10.87
2023-01-20T02:41:10.001Z,13.93
2023-01-20T02:43:21.337Z,11.00
2023-01-20T02:45:34.336Z,12.90
2023-01-20T02:47:51.616Z,8.70
2023-01-20T02:50:04.816Z,12.73
2023-01-20T02:52:15.689Z,9.93
2023-01-20T02:54:26.755Z,12.10
2023-01-20T02:56:37.103Z,10.47
2023-01-20T02:58:49.616Z,11.20
2023-01-20T03:01:01.044Z,12.00
2023-01-20T03:03:13.225Z,10.57
2023-01-20T03:05:23.984Z,10.67
2023-01-20T03:07:33.580Z,12.30
2023-01-20T03:09:45.464Z,11.27
2023-01-20T03:11:56.765Z,10.50
2023-01-20T03:14:08.455Z,7.87
2023-01-20T03:16:18.487Z,12.43
2023-01-20T03:18:30.970Z,11.33
2023-01-20T03:20:40.230Z,11.47
2023-01-20T03:22:48.988Z,9.80
2023-01-20T03:24:58.511Z,9.63
2023-01-20T03:27:07.381Z,9.70
2023-01-20T03:29:18.897Z,9.57
2023-01-20T03:31:29.371Z,8.97
2023-01-20T03:33:40.189Z,11.60
2023-01-20T03:35:49.255Z,9.23
2023-01-20T03:37:58.114Z,10.10
2023-01-20T03:40:07.409Z,10.43
2023-01-20T03:42:19.084Z,8.20
2023-01-20T03:44:34.141Z,9.70
2023-01-20T03:46:45.031Z,9.23
2023-01-20T03:49:00.243Z,9.73
2023-01-20T03:51:12.862Z,8.57
2023-01-20T03:53:30.454Z,8.87
2023-01-20T03:55:44.059Z,8.73
2023-01-20T03:57:55.559Z,7.73
2023-01-20T04:00:05.727Z,8.80
2023-01-20T04:02:14.603Z,7.57
2023-01-20T04:04:25.021Z,5.77
2023-01-20T04:06:34.770Z,11.40
2023-01-20T04:08:46.435Z,5.77
2023-01-20T04:10:55.763Z,6.30
2023-01-20T04:13:05.072Z,6.60
2023-01-20T04:15:14.651Z,6.17
2023-01-20T04:17:23.961Z,6.30
2023-01-20T04:19:34.471Z,5.37
2023-01-20T04:21:46.585Z,9.13
2023-01-20T04:23:57.647Z,7.63
2023-01-20T04:26:06.997Z,7.00
2023-01-20T04:28:15.725Z,7.33
2023-01-20T04:30:24.464Z,6.43
2023-01-20T04:32:33.159Z,7.93
2023-01-20T04:34:44.284Z,7.20
2023-01-20T04:36:53.267Z,9.27
2023-01-20T04:39:02.335Z,6.57
2023-01-20T04:41:11.962Z,7.80
2023-01-20T04:43:20.853Z,4.70
2023-01-20T04:45:29.731Z,6.27
2023-01-20T04:47:38.412Z,8.57
2023-01-20T04:49:48.728Z,5.67
2023-01-20T04:51:57.824Z,7.60
2023-01-20T04:54:07.252Z,6.93
2023-01-20T04:56:16.901Z,7.07
2023-01-20T04:58:25.896Z,8.07
2023-01-20T05:00:34.917Z,7.87
2023-01-20T05:02:43.487Z,7.77
2023-01-20T05:04:53.476Z,5.67
2023-01-20T05:07:02.358Z,5.80
2023-01-20T05:09:11.783Z,9.27
2023-01-20T05:11:20.814Z,6.57
2023-01-20T05:13:29.847Z,6.27
2023-01-20T05:15:38.916Z,5.27
2023-01-20T05:17:47.785Z,7.60
2023-01-20T05:19:58.509Z,10.17
2023-01-20T05:22:07.203Z,7.23
2023-01-20T05:24:16.249Z,12.90
2023-01-20T05:26:25.824Z,14.50
2023-01-20T05:28:34.786Z,9.70
2023-01-20T05:30:43.963Z,9.17
2023-01-20T05:32:53.794Z,6.40
2023-01-20T05:35:04.157Z,6.97
2023-01-20T05:37:13.030Z,7.00
2023-01-20T05:39:22.221Z,6.13
2023-01-20T05:41:31.319Z,6.60
2023-01-20T05:43:40.646Z,7.13
2023-01-20T05:45:49.499Z,5.20
2023-01-20T05:47:59.306Z,6.73
2023-01-20T05:50:10.491Z,10.37
2023-01-20T05:52:19.330Z,6.77
2023-01-20T05:54:28.378Z,5.43
2023-01-20T05:56:37.481Z,9.77
2023-01-20T05:58:46.329Z,8.23
2023-01-20T06:00:55.339Z,8.40
2023-01-20T06:03:04.262Z,7.67
2023-01-20T06:05:14.924Z,7.77
2023-01-20T06:07:24.015Z,9.97
2023-01-20T06:09:33.081Z,9.50
2023-01-20T06:11:42.483Z,5.37
2023-01-20T06:13:51.710Z,11.40
2023-01-20T06:16:00.759Z,7.53
2023-01-20T06:18:13.277Z,7.30
2023-01-20T06:20:23.414Z,8.30
2023-01-20T06:22:32.256Z,8.87
2023-01-20T06:24:41.501Z,7.67
2023-01-20T06:26:52.031Z,9.43
2023-01-20T06:29:01.958Z,10.13
2023-01-20T06:31:11.927Z,9.97
2023-01-20T06:33:20.716Z,14.00
2023-01-20T06:35:30.978Z,8.20
2023-01-20T06:37:40.145Z,11.50
2023-01-20T06:39:49.225Z,14.07
2023-01-20T06:41:59.856Z,14.83
2023-01-20T06:44:08.673Z,14.40
2023-01-20T06:46:18.087Z,11.50
2023-01-20T06:48:27.152Z,13.50
2023-01-20T06:50:39.767Z,30.33
2023-01-20T06:52:48.329Z,24.23
2023-01-20T06:54:57.521Z,13.83
2023-01-20T06:57:06.408Z,20.67
2023-01-20T06:59:15.381Z,21.23
2023-01-20T07:01:25.407Z,17.37
2023-01-20T07:03:34.481Z,19.10
2023-01-20T07:05:45.438Z,21.33
2023-01-20T07:07:54.445Z,11.73
2023-01-20T07:10:03.360Z,24.00
2023-01-20T07:12:11.991Z,16.00
2023-01-20T07:14:20.965Z,12.60
2023-01-20T07:16:30.311Z,14.43
2023-01-20T07:18:39.123Z,12.43
2023-01-20T07:20:49.775Z,19.53
2023-01-20T07:23:01.187Z,22.30
2023-01-20T07:25:10.207Z,19.07
2023-01-20T07:27:18.951Z,21.77
2023-01-20T07:29:29.041Z,15.33
2023-01-20T07:31:37.715Z,21.13
2023-01-20T07:33:46.665Z,12.97
2023-01-20T07:35:57.501Z,13.13
2023-01-20T07:38:06.572Z,10.60
2023-01-20T07:40:15.235Z,13.00
2023-01-20T07:42:23.897Z,16.73
2023-01-20T07:44:34.361Z,10.63
2023-01-20T07:46:42.990Z,14.17
2023-01-20T07:48:52.425Z,15.93
2023-01-20T07:51:05.625Z,14.27
2023-01-20T07:53:14.775Z,15.57
2023-01-20T07:55:25.099Z,10.63
2023-01-20T07:57:34.361Z,7.47
2023-01-20T07:59:43.455Z,7.93
2023-01-20T08:01:52.265Z,8.67
2023-01-20T08:04:01.768Z,8.50
2023-01-20T08:06:13.574Z,7.47
2023-01-20T08:08:22.564Z,10.57
2023-01-20T08:10:31.352Z,12.60
2023-01-20T08:12:42.519Z,15.87
2023-01-20T08:14:51.313Z,11.77
2023-01-20T08:17:01.320Z,11.90
2023-01-20T08:19:09.912Z,13.10
2023-01-20T08:21:21.367Z,13.23
2023-01-20T08:23:30.614Z,12.53
2023-01-20T08:25:39.656Z,9.77
2023-01-20T08:27:50.610Z,9.43
2023-01-20T08:29:59.281Z,10.57
2023-01-20T08:32:08.568Z,15.63
2023-01-20T08:34:19.035Z,16.30
2023-01-20T08:36:30.673Z,13.47
2023-01-20T08:38:40.099Z,12.87
2023-01-20T08:40:49.285Z,11.20
2023-01-20T08:42:58.079Z,16.40
2023-01-20T08:45:09.143Z,15.87
2023-01-20T08:47:18.264Z,18.03
2023-01-20T08:49:27.334Z,15.40
2023-01-20T08:51:37.629Z,16.97
2023-01-20T08:53:47.794Z,15.73
2023-01-20T08:55:57.610Z,18.73
2023-01-20T08:58:06.259Z,21.93
2023-01-20T09:00:15.585Z,22.80
2023-01-20T09:02:24.875Z,16.17
2023-01-20T09:04:33.476Z,16.80
2023-01-20T09:06:45.165Z,17.13
2023-01-20T09:08:55.252Z,13.80
2023-01-20T09:11:04.978Z,14.07
2023-01-20T09:13:14.171Z,15.30
2023-01-20T09:15:25.461Z,13.60
2023-01-20T09:17:34.829Z,14.73
2023-01-20T09:19:43.745Z,14.73
2023-01-20T09:21:54.015Z,19.27
2023-01-20T09:24:02.702Z,16.40
2023-01-20T09:26:12.376Z,13.50
2023-01-20T09:28:22.335Z,15.50
2023-01-20T09:30:31.059Z,12.90
2023-01-20T09:32:39.767Z,14.67
2023-01-20T09:34:48.679Z,14.07
2023-01-20T09:37:20.073Z,14.60
2023-01-20T09:39:46.450Z,13.20
2023-01-20T09:42:12.957Z,12.67
2023-01-20T09:44:29.378Z,12.20
2023-01-20T09:46:45.241Z,8.43
2023-01-20T09:49:16.093Z,12.70
2023-01-20T09:51:45.019Z,11.67
2023-01-20T09:53:59.869Z,8.67
2023-01-20T09:56:13.151Z,4.63
2023-01-20T09:58:27.219Z,8.93
2023-01-20T10:00:36.952Z,12.70
2023-01-20T10:02:46.890Z,18.60
2023-01-20T10:04:59.247Z,7.17
2023-01-20T10:07:11.005Z,6.03
2023-01-20T10:09:26.995Z,8.70
2023-01-20T10:11:38.166Z,7.27
2023-01-20T10:13:51.705Z,14.13
2023-01-20T10:16:02.938Z,15.07
2023-01-20T10:18:15.801Z,17.33
2023-01-20T10:20:29.120Z,19.10
2023-01-20T10:22:39.879Z,11.43
2023-01-20T10:24:55.594Z,15.00
2023-01-20T10:27:04.875Z,12.60
2023-01-20T10:29:16.747Z,13.53
2023-01-20T10:31:27.787Z,11.70
2023-01-20T10:33:39.226Z,15.37
2023-01-20T10:35:49.146Z,9.77
2023-01-20T10:37:59.050Z,12.10
2023-01-20T10:40:17.885Z,12.17
2023-01-20T10:42:28.711Z,14.20
2023-01-20T10:44:37.578Z,10.40
2023-01-20T10:46:57.344Z,10.93
2023-01-20T10:49:15.140Z,10.10
2023-01-20T10:51:26.975Z,8.53
2023-01-20T10:53:44.738Z,11.20
2023-01-20T10:56:03.327Z,14.00
2023-01-20T10:58:23.677Z,9.10
2023-01-20T11:00:34.146Z,24.90
2023-01-20T11:02:44.461Z,8.60
2023-01-20T11:04:55.198Z,8.10
2023-01-20T11:07:08.686Z,9.83
2023-01-20T11:09:23.070Z,11.70
2023-01-20T11:11:33.697Z,11.30
2023-01-20T11:13:42.724Z,16.00
2023-01-20T11:15:53.328Z,10.63
2023-01-20T11:18:17.094Z,12.50
2023-01-20T11:20:25.944Z,11.70
2023-01-20T11:22:36.182Z,10.20
2023-01-20T11:24:46.440Z,10.53
2023-01-20T11:27:04.818Z,9.47
2023-01-20T11:29:28.821Z,12.33
2023-01-20T11:31:39.985Z,11.90
2023-01-20T11:33:59.565Z,11.57
2023-01-20T11:36:09.320Z,8.57
2023-01-20T11:38:29.022Z,9.00
2023-01-20T11:40:37.909Z,10.53
2023-01-20T11:42:49.195Z,10.57
2023-01-20T11:45:15.364Z,11.40
2023-01-20T11:47:29.230Z,11.10
2023-01-20T11:49:38.081Z,12.90
2023-01-20T11:51:49.161Z,11.43
2023-01-20T11:54:08.711Z,11.27
2023-01-20T11:56:19.987Z,9.70
2023-01-20T11:58:34.569Z,9.47
2023-01-20T12:00:44.253Z,14.20
2023-01-20T12:02:58.992Z,8.97
2023-01-20T12:05:13.279Z,9.97
2023-01-20T12:07:24.898Z,10.47
2023-01-20T12:09:37.658Z,9.83
2023-01-20T12:11:49.410Z,11.73
2023-01-20T12:14:23.490Z,10.50
2023-01-20T12:16:34.752Z,11.50
2023-01-20T12:19:01.160Z,9.97
2023-01-20T12:21:17.874Z,8.43
2023-01-20T12:23:32.751Z,11.77
2023-01-20T12:25:45.383Z,10.10
2023-01-20T12:27:56.212Z,9.10
2023-01-20T12:30:06.992Z,9.73
2023-01-20T12:32:18.018Z,11.73
2023-01-20T12:34:29.342Z,13.27
2023-01-20T12:36:57.638Z,11.10
2023-01-20T12:39:14.691Z,10.30
2023-01-20T12:41:32.037Z,12.23
2023-01-20T12:43:50.591Z,15.17
2023-01-20T12:46:08.723Z,14.40
2023-01-20T12:48:32.657Z,14.43
2023-01-20T12:50:50.660Z,13.53
2023-01-20T12:53:06.298Z,12.23
2023-01-20T12:55:24.141Z,11.13
2023-01-20T12:57:39.483Z,14.67
2023-01-20T12:59:52.794Z,13.00
2023-01-20T13:02:07.629Z,14.60
2023-01-20T13:04:34.210Z,11.17
2023-01-20T13:06:51.574Z,11.50
2023-01-20T13:09:08.012Z,12.20
2023-01-20T13:11:20.714Z,12.50
2023-01-20T13:13:56.033Z,10.90
2023-01-20T13:16:09.231Z,9.30
2023-01-20T13:18:23.908Z,11.47
2023-01-20T13:20:33.448Z,12.40
2023-01-20T13:22:43.993Z,12.97
2023-01-20T13:24:54.589Z,13.40
2023-01-20T13:27:04.099Z,8.63
2023-01-20T13:29:22.884Z,12.73
2023-01-20T13:31:44.822Z,12.93
2023-01-20T13:33:53.653Z,11.77
2023-01-20T13:36:04.339Z,14.03
2023-01-20T13:38:21.818Z,15.40
2023-01-20T13:40:49.431Z,16.43
2023-01-20T13:42:58.559Z,20.73
2023-01-20T13:45:25.959Z,16.83
2023-01-20T13:47:49.353Z,15.93
2023-01-20T13:49:58.469Z,12.10
2023-01-20T13:52:07.492Z,13.50
2023-01-20T13:54:35.760Z,9.77
2023-01-20T13:56:46.058Z,10.13
2023-01-20T13:58:55.088Z,11.67
2023-01-20T14:01:05.456Z,10.73
2023-01-20T14:03:20.098Z,9.27
2023-01-20T14:05:30.422Z,10.37
2023-01-20T14:07:39.361Z,11.33
2023-01-20T14:09:53.393Z,8.40
2023-01-20T14:12:03.911Z,9.67
2023-01-20T14:14:20.100Z,11.23
2023-01-20T14:16:29.888Z,10.07
2023-01-20T14:18:38.697Z,9.50
2023-01-20T14:20:58.809Z,11.33
2023-01-20T14:23:31.311Z,13.73
2023-01-20T14:25:40.340Z,16.47
2023-01-20T14:27:51.237Z,15.97
2023-01-20T14:30:02.030Z,14.63
2023-01-20T14:32:22.108Z,17.27
2023-01-20T14:34:33.855Z,14.00
2023-01-20T14:36:43.259Z,19.07
2023-01-20T14:38:58.419Z,12.30
2023-01-20T14:41:07.557Z,12.73
2023-01-20T14:43:19.750Z,14.10
2023-01-20T14:45:30.091Z,11.10
2023-01-20T14:47:39.469Z,14.07
2023-01-20T14:49:49.639Z,12.80
2023-01-20T14:51:58.666Z,17.83
2023-01-20T14:54:25.870Z,15.33
2023-01-20T14:56:34.562Z,17.23
2023-01-20T14:58:48.334Z,17.00
2023-01-20T15:00:58.924Z,15.37
2023-01-20T15:03:11.752Z,17.40
2023-01-20T15:05:28.534Z,17.67
2023-01-20T15:07:38.395Z,15.27
2023-01-20T15:09:53.210Z,16.40
2023-01-20T15:12:20.683Z,16.23
2023-01-20T15:14:34.376Z,32.40
2023-01-20T15:16:50.824Z,25.03
2023-01-20T15:19:18.776Z,28.10
2023-01-20T15:21:31.079Z,24.03
2023-01-20T15:23:41.397Z,23.40
2023-01-20T15:25:51.024Z,23.83
2023-01-20T15:28:00.125Z,24.40
2023-01-20T15:30:19.699Z,20.30
2023-01-20T15:32:29.023Z,33.40
2023-01-20T15:34:38.065Z,32.23
2023-01-20T15:36:47.758Z,32.57
2023-01-20T15:38:57.292Z,55.03
2023-01-20T15:41:05.992Z,37.27
2023-01-20T15:43:17.012Z,47.43
2023-01-20T15:45:27.441Z,36.57
2023-01-20T15:47:36.452Z,29.83
2023-01-20T15:49:45.146Z,33.27
2023-01-20T15:51:54.541Z,29.90
2023-01-20T15:54:03.495Z,24.30
2023-01-20T15:56:16.444Z,29.50
2023-01-20T15:58:27.374Z,24.97
2023-01-20T16:00:38.887Z,23.53
2023-01-20T16:02:47.602Z,23.10
2023-01-20T16:04:56.476Z,26.50
2023-01-20T16:07:05.341Z,24.27
2023-01-20T16:09:20.009Z,24.37
2023-01-20T16:11:28.770Z,25.13
2023-01-20T16:13:37.683Z,27.30
2023-01-20T16:15:47.787Z,29.47
2023-01-20T16:17:57.068Z,33.00
2023-01-20T16:20:06.502Z,36.27
2023-01-20T16:22:15.633Z,36.00
2023-01-20T16:24:24.489Z,25.43
2023-01-20T16:26:34.477Z,24.60
2023-01-20T16:28:43.202Z,28.93
2023-01-20T16:30:54.489Z,32.63
2023-01-20T16:33:03.603Z,37.23
2023-01-20T16:35:12.279Z,37.97
2023-01-20T16:37:21.253Z,36.13
2023-01-20T16:39:29.978Z,34.73
2023-01-20T16:41:39.759Z,40.47
2023-01-20T16:43:48.702Z,37.63
2023-01-20T16:45:59.153Z,34.83
2023-01-20T16:48:09.359Z,35.73
2023-01-20T16:50:18.772Z,31.93
2023-01-20T16:52:27.418Z,36.07
2023-01-20T16:54:36.628Z,31.50
2023-01-20T16:56:45.691Z,40.57
2023-01-20T16:58:55.283Z,41.30
2023-01-20T17:01:12.362Z,40.00
2023-01-20T17:03:21.191Z,35.70
2023-01-20T17:05:30.584Z,36.03
2023-01-20T17:07:41.191Z,40.60
2023-01-20T17:09:50.151Z,36.03
2023-01-20T17:11:59.225Z,48.77
2023-01-20T17:14:09.492Z,44.93
2023-01-20T17:16:20.195Z,34.33
2023-01-20T17:18:29.285Z,48.70
2023-01-20T17:20:38.284Z,39.10
2023-01-20T17:22:47.541Z,88.37
2023-01-20T17:24:56.467Z,81.23
2023-01-20T17:27:05.844Z,84.10
2023-01-20T17:29:15.074Z,93.07
2023-01-20T17:31:25.425Z,89.77
2023-01-20T17:33:34.477Z,98.97
2023-01-20T17:35:43.514Z,90.03
2023-01-20T17:37:53.185Z,98.87
2023-01-20T17:40:01.917Z,94.83
2023-01-20T17:42:10.702Z,78.83
2023-01-20T17:44:20.149Z,68.40
2023-01-20T17:46:31.147Z,61.70
2023-01-20T17:48:40.373Z,59.60
2023-01-20T17:50:49.624Z,52.57
2023-01-20T17:52:58.211Z,53.20
2023-01-20T17:55:07.496Z,49.30
2023-01-20T17:57:16.412Z,36.53
2023-01-20T17:59:26.364Z,41.17
2023-01-20T18:01:37.154Z,50.90
2023-01-20T18:03:46.214Z,47.53
2023-01-20T18:05:55.550Z,46.93
2023-01-20T18:08:04.562Z,42.87
2023-01-20T18:10:13.976Z,43.27
2023-01-20T18:12:22.931Z,46.37
2023-01-20T18:14:31.526Z,48.80
2023-01-20T18:16:43.126Z,58.97
2023-01-20T18:18:52.196Z,65.30
2023-01-20T18:21:10.037Z,67.77
2023-01-20T18:23:19.256Z,63.60
2023-01-20T18:25:27.865Z,56.33
2023-01-20T18:27:37.403Z,52.20
2023-01-20T18:29:46.216Z,54.30
2023-01-20T18:31:57.375Z,48.27
2023-01-20T18:34:07.296Z,49.83
2023-01-20T18:36:18.009Z,46.77
2023-01-20T18:38:27.332Z,51.87
2023-01-20T18:40:36.540Z,47.33
2023-01-20T18:42:45.371Z,49.40
2023-01-20T18:44:54.072Z,46.67
2023-01-20T18:47:04.806Z,53.03
2023-01-20T18:49:14.800Z,47.30
2023-01-20T18:51:24.285Z,45.33
2023-01-20T18:53:33.171Z,46.53
2023-01-20T18:55:42.367Z,48.13
2023-01-20T18:57:51.162Z,41.83
2023-01-20T19:00:00.139Z,54.97
2023-01-20T19:02:13.760Z,73.30
2023-01-20T19:04:22.789Z,75.57
2023-01-20T19:06:32.374Z,59.93
2023-01-20T19:08:42.061Z,60.77
2023-01-20T19:10:51.128Z,54.80
2023-01-20T19:13:00.172Z,49.33
2023-01-20T19:15:09.591Z,47.13
2023-01-20T19:17:19.962Z,46.90
2023-01-20T19:19:28.796Z,46.10
2023-01-20T19:21:37.948Z,44.50
2023-01-20T19:23:50.256Z,41.23
2023-01-20T19:26:02.781Z,45.30
2023-01-20T19:30:55.939Z,38.93
2023-01-20T19:33:08.787Z,39.83
2023-01-20T19:35:17.580Z,38.03
2023-01-20T19:37:26.158Z,40.13
2023-01-20T19:39:35.251Z,39.83
2023-01-20T19:41:44.132Z,33.73
2023-01-20T19:43:57.478Z,35.13
2023-01-20T19:46:07.115Z,39.47
2023-01-20T19:48:17.310Z,40.80
2023-01-20T19:50:26.321Z,38.40
2023-01-20T19:52:35.351Z,36.70
2023-01-20T19:54:44.582Z,48.70
2023-01-20T19:56:53.169Z,40.27
2023-01-20T19:59:02.410Z,42.20
2023-01-20T20:01:12.032Z,39.97
2023-01-20T20:03:22.168Z,39.07
2023-01-20T20:05:32.233Z,54.43
2023-01-20T20:07:41.124Z,55.37
2023-01-20T20:09:50.156Z,57.90
2023-01-20T20:12:05.234Z,57.53
2023-01-20T20:14:14.913Z,61.67
2023-01-20T20:16:23.935Z,62.27
2023-01-20T20:18:34.183Z,54.27
2023-01-20T20:20:44.066Z,44.17
2023-01-20T20:22:53.390Z,49.50
2023-01-20T20:25:02.277Z,42.90
2023-01-20T20:27:11.573Z,63.90
2023-01-20T20:29:21.484Z,61.27
2023-01-20T20:31:30.669Z,64.57
2023-01-20T20:33:41.135Z,84.40
2023-01-20T20:35:49.808Z,86.93
2023-01-20T20:37:58.887Z,110.07
2023-01-20T20:40:08.337Z,60.53
2023-01-20T20:42:17.266Z,51.23
2023-01-20T20:44:26.538Z,56.20
2023-01-20T20:46:35.422Z,45.93
2023-01-20T20:48:45.475Z,51.57
2023-01-20T20:50:54.782Z,34.40
2023-01-20T20:53:03.804Z,36.83
2023-01-20T20:55:12.803Z,39.90
2023-01-20T20:57:22.143Z,35.10
2023-01-20T20:59:30.871Z,34.17
2023-01-20T21:01:40.342Z,27.23
2023-01-20T21:03:51.184Z,24.53
2023-01-20T21:06:00.112Z,40.20
2023-01-20T21:08:09.216Z,29.83
2023-01-20T21:10:18.634Z,46.40
2023-01-20T21:12:27.943Z,81.30
2023-01-20T21:14:36.760Z,58.67
2023-01-20T21:16:46.028Z,80.47
2023-01-20T21:18:57.338Z,93.07
2023-01-20T21:21:11.248Z,68.90
2023-01-20T21:23:20.009Z,61.50
2023-01-20T21:25:28.792Z,57.67
2023-01-20T21:27:38.396Z,65.57
2023-01-20T21:29:47.719Z,66.70
2023-01-20T21:31:57.878Z,78.27
2023-01-20T21:34:08.065Z,67.83
2023-01-20T21:36:17.486Z,81.77
2023-01-20T21:38:26.266Z,100.27
2023-01-20T21:40:35.395Z,53.00
2023-01-20T21:42:43.986Z,78.70
2023-01-20T21:44:51.744Z,74.50
2023-01-20T21:47:01.724Z,54.90
2023-01-20T21:49:29.558Z,85.43
2023-01-20T21:51:55.764Z,67.47
2023-01-20T21:54:04.589Z,74.83
2023-01-20T21:56:18.828Z,59.47
2023-01-20T21:58:27.829Z,139.03
2023-01-20T22:00:37.259Z,90.27
2023-01-20T22:02:46.259Z,69.03
2023-01-20T22:04:56.782Z,84.00
2023-01-20T22:07:05.463Z,94.37
2023-01-20T22:09:14.331Z,114.17
2023-01-20T22:11:23.363Z,109.47
2023-01-20T22:13:32.181Z,214.20
2023-01-20T22:15:41.513Z,86.77
2023-01-20T22:17:50.223Z,129.13
2023-01-20T22:20:00.267Z,99.60
2023-01-20T22:22:09.587Z,111.47
2023-01-20T22:24:18.678Z,83.10
2023-01-20T22:26:27.353Z,102.97
2023-01-20T22:28:38.537Z,197.30
2023-01-20T22:30:47.811Z,197.30
2023-01-20T22:32:56.818Z,80.20
2023-01-20T22:35:07.916Z,118.80
2023-01-20T22:37:16.913Z,185.50
2023-01-20T22:39:26.011Z,173.47
2023-01-20T22:41:34.901Z,220.77
2023-01-20T22:43:44.565Z,194.17
2023-01-20T22:46:00.300Z,196.27
2023-01-20T22:48:09.662Z,140.03
2023-01-20T22:50:21.149Z,254.63
2023-01-20T22:52:29.843Z,196.43
2023-01-20T22:54:39.123Z,175.90
2023-01-20T22:56:48.371Z,198.53
2023-01-20T22:58:58.091Z,163.30
2023-01-20T23:01:06.887Z,116.57
2023-01-20T23:03:15.993Z,107.97
2023-01-20T23:05:26.511Z,100.87
2023-01-20T23:07:37.674Z,92.63
2023-01-20T23:09:46.660Z,167.23
2023-01-20T23:11:55.916Z,191.13
2023-01-20T23:14:04.686Z,226.10
2023-01-20T23:16:15.805Z,197.50
2023-01-20T23:18:25.082Z,88.80
2023-01-20T23:20:35.714Z,192.43
2023-01-20T23:22:44.583Z,141.90
2023-01-20T23:24:53.319Z,154.73
2023-01-20T23:27:02.336Z,146.93
2023-01-20T23:29:11.529Z,106.33
2023-01-20T23:31:21.061Z,99.00
2023-01-20T23:33:30.002Z,112.87
2023-01-20T23:35:40.863Z,83.70
2023-01-20T23:37:50.220Z,140.40
2023-01-20T23:39:59.023Z,165.47
2023-01-20T23:42:08.388Z,148.03
2023-01-20T23:44:17.059Z,158.50
2023-01-20T23:46:26.098Z,77.63
2023-01-20T23:48:35.439Z,85.60
2023-01-20T23:50:47.129Z,77.70
2023-01-20T23:52:55.872Z,71.90
2023-01-20T23:55:04.442Z,62.20
2023-01-20T23:57:13.565Z,31.67
2023-01-20T23:59:22.400Z,35.40
